Time;durP1;ratioP1;P1;durP2;ratioP2;P2;SDS_P1;SDS_P2;PMS_P1;PMS_P2;Temp;Humidity;BMP_temperature;BMP_pressure;BME280_temperature;BME280_humidity;BME280_pressure;Samples;Min_cycle;Max_cycle;Signal;HPM_P1;HPM_P2
2023/06/26 00:00:18;;;;;;;0.00;0.00;;;;;;;15.19;76.57;100474.91;5045289;28;20070;-70
2023/06/26 00:02:43;;;;;;;0.00;0.00;;;;;;;15.12;77.13;100473.63;5025224;28;20063;-77
2023/06/26 00:05:09;;;;;;;0.00;0.00;;;;;;;15.04;77.12;100477.88;5041621;28;20372;-74
2023/06/26 00:07:35;;;;;;;0.00;0.00;;;;;;;14.95;77.13;100476.88;5021126;28;20033;-72
2023/06/26 00:10:02;;;;;;;0.00;0.00;;;;;;;14.91;77.38;100481.31;5051565;28;20032;-70
2023/06/26 00:12:28;;;;;;;0.00;0.00;;;;;;;14.99;77.18;100477.94;5018186;28;20064;-71
2023/06/26 00:14:54;;;;;;;0.00;0.00;;;;;;;15.05;77.17;100487.75;5022350;28;20049;-71
2023/06/26 00:17:20;;;;;;;0.00;0.00;;;;;;;15.07;77.27;100491.06;5038902;28;20115;-73
2023/06/26 00:19:45;;;;;;;0.00;0.00;;;;;;;15.08;77.14;100489.09;5026749;28;20033;-72
2023/06/26 00:22:11;;;;;;;0.00;0.00;;;;;;;15.01;76.97;100493.03;5019888;28;20053;-72
2023/06/26 00:24:36;;;;;;;0.00;0.00;;;;;;;14.97;77.17;100488.44;5035518;28;20492;-72
2023/06/26 00:27:02;;;;;;;0.00;0.00;;;;;;;14.94;77.41;100487.06;5039377;28;20029;-73
2023/06/26 00:29:27;;;;;;;0.00;0.00;;;;;;;14.88;77.01;100481.91;5062435;28;20059;-71
2023/06/26 00:31:52;;;;;;;0.00;0.00;;;;;;;14.74;77.04;100485.38;5024508;28;20113;-72
2023/06/26 00:34:19;;;;;;;0.00;0.00;;;;;;;14.71;77.40;100488.72;5033975;28;20029;-70
2023/06/26 00:36:45;;;;;;;0.00;0.00;;;;;;;14.71;77.51;100498.91;5051099;28;20029;-69
2023/06/26 00:39:10;;;;;;;0.00;0.00;;;;;;;14.68;77.37;100494.81;5032542;28;20116;-71
2023/06/26 00:41:37;;;;;;;0.00;0.00;;;;;;;14.65;77.55;100489.88;5090214;22;20083;-70
2023/06/26 00:44:04;;;;;;;0.00;0.00;;;;;;;14.65;77.62;100481.63;5020102;28;20025;-70
2023/06/26 00:46:30;;;;;;;0.00;0.00;;;;;;;14.64;77.52;100491.81;5056476;28;20401;-70
2023/06/26 00:48:59;;;;;;;0.00;0.00;;;;;;;14.65;77.79;100487.13;5050433;28;20670;-71
2023/06/26 00:51:28;;;;;;;0.00;0.00;;;;;;;14.63;77.62;100492.09;5047383;28;20382;-70
2023/06/26 00:53:54;;;;;;;0.00;0.00;;;;;;;14.67;77.82;100493.16;5034356;28;20045;-70
2023/06/26 00:56:20;;;;;;;0.00;0.00;;;;;;;14.73;77.68;100496.66;5037814;28;20113;-70
2023/06/26 00:58:46;;;;;;;0.00;0.00;;;;;;;14.77;77.82;100504.06;5048689;28;20462;-70
2023/06/26 01:01:21;;;;;;;0.00;0.00;;;;;;;14.77;77.57;100504.06;5011553;28;20851;-71
2023/06/26 01:03:52;;;;;;;0.00;0.00;;;;;;;14.71;77.48;100499.72;5024956;28;20032;-69
2023/06/26 01:06:21;;;;;;;0.00;0.00;;;;;;;14.64;77.64;100497.31;5043332;28;20378;-70
2023/06/26 01:08:48;;;;;;;0.00;0.00;;;;;;;14.58;78.23;100501.19;5029273;28;20149;-69
2023/06/26 01:11:14;;;;;;;0.00;0.00;;;;;;;14.60;78.32;100503.66;5019692;28;20553;-70
2023/06/26 01:13:42;;;;;;;0.00;0.00;;;;;;;14.58;78.52;100505.88;5038535;28;20052;-70
2023/06/26 01:16:08;;;;;;;0.00;0.00;;;;;;;14.55;78.55;100506.47;5043095;28;20029;-71
2023/06/26 01:18:37;;;;;;;0.00;0.00;;;;;;;14.51;78.51;100508.16;5041266;28;21374;-71
2023/06/26 01:21:04;;;;;;;0.00;0.00;;;;;;;14.39;78.80;100514.88;5029183;28;20025;-72
2023/06/26 01:24:09;;;;;;;0.00;0.00;;;;;;;14.42;79.21;100503.28;5029951;28;20416;-70
2023/06/26 01:26:36;;;;;;;0.00;0.00;;;;;;;14.41;78.95;100518.16;5035779;28;20056;-70
2023/06/26 01:29:06;;;;;;;0.00;0.00;;;;;;;14.36;79.48;100514.63;5057746;28;20040;-71
2023/06/26 01:31:32;;;;;;;0.00;0.00;;;;;;;14.31;79.61;100518.25;5028230;28;20112;-70
2023/06/26 01:33:59;;;;;;;0.00;0.00;;;;;;;14.31;79.39;100515.50;5041880;28;20698;-71
2023/06/26 01:36:25;;;;;;;0.00;0.00;;;;;;;14.24;79.36;100526.03;5029322;28;20623;-72
2023/06/26 01:38:51;;;;;;;0.00;0.00;;;;;;;14.20;79.75;100525.75;5021372;28;20417;-73
2023/06/26 01:41:17;;;;;;;0.00;0.00;;;;;;;14.20;79.79;100527.69;5010737;28;20046;-72
2023/06/26 01:44:09;;;;;;;0.00;0.00;;;;;;;14.11;80.07;100524.75;4990019;28;20188;-72
2023/06/26 01:46:37;;;;;;;0.00;0.00;;;;;;;14.08;80.13;100531.63;4990760;28;20110;-72
2023/06/26 01:49:06;;;;;;;0.00;0.00;;;;;;;14.02;80.25;100537.44;5000374;28;20026;-72
2023/06/26 01:51:41;;;;;;;0.00;0.00;;;;;;;13.99;80.42;100535.28;4998941;28;20049;-73
2023/06/26 01:54:13;;;;;;;0.00;0.00;;;;;;;13.93;80.65;100535.31;5013733;28;20153;-70
2023/06/26 01:56:40;;;;;;;0.00;0.00;;;;;;;13.87;80.52;100544.72;4999940;28;20028;-69
2023/06/26 01:59:07;;;;;;;0.00;0.00;;;;;;;13.82;80.97;100550.25;5006508;28;20112;-70
2023/06/26 02:01:33;;;;;;;0.00;0.00;;;;;;;13.79;81.52;100546.13;5000026;28;20030;-71
2023/06/26 02:03:59;;;;;;;0.00;0.00;;;;;;;13.78;80.95;100543.66;5015636;28;20033;-72
2023/06/26 02:06:25;;;;;;;0.00;0.00;;;;;;;13.77;81.67;100562.09;5023343;28;21687;-72
2023/06/26 02:08:51;;;;;;;0.00;0.00;;;;;;;13.77;81.61;100553.84;5016372;28;20029;-72
2023/06/26 02:11:16;;;;;;;0.00;0.00;;;;;;;13.70;81.42;100556.09;4998591;28;20084;-72
2023/06/26 02:13:41;;;;;;;0.00;0.00;;;;;;;13.65;82.04;100556.09;5019793;28;20072;-73
2023/06/26 02:16:07;;;;;;;0.00;0.00;;;;;;;13.61;82.18;100555.03;5035866;28;20036;-72
2023/06/26 02:18:32;;;;;;;0.00;0.00;;;;;;;13.56;82.38;100557.81;5019548;28;20037;-72
2023/06/26 02:20:58;;;;;;;0.00;0.00;;;;;;;13.54;82.26;100554.53;4996207;28;20034;-73
2023/06/26 02:23:23;;;;;;;0.00;0.00;;;;;;;13.53;82.21;100561.13;5002408;28;20037;-72
2023/06/26 02:25:48;;;;;;;0.00;0.00;;;;;;;13.50;82.90;100561.69;4993347;28;20092;-72
2023/06/26 02:28:14;;;;;;;0.00;0.00;;;;;;;13.47;82.95;100565.00;5013044;28;20030;-73
2023/06/26 02:30:39;;;;;;;0.00;0.00;;;;;;;13.46;82.61;100561.41;4993547;28;20087;-72
2023/06/26 02:33:04;;;;;;;0.00;0.00;;;;;;;13.47;82.53;100567.75;5027397;28;20030;-71
2023/06/26 02:35:30;;;;;;;0.00;0.00;;;;;;;13.42;82.62;100563.91;5018867;28;20026;-72
2023/06/26 02:37:55;;;;;;;0.00;0.00;;;;;;;13.40;82.92;100565.28;4999853;28;20041;-72
2023/06/26 02:40:21;;;;;;;0.00;0.00;;;;;;;13.31;83.32;100556.78;5005714;28;20707;-72
2023/06/26 02:42:46;;;;;;;0.00;0.00;;;;;;;13.32;83.71;100563.94;5034542;28;20029;-73
2023/06/26 02:45:13;;;;;;;0.00;0.00;;;;;;;13.37;84.00;100560.38;5027049;28;20041;-73
2023/06/26 02:47:39;;;;;;;0.00;0.00;;;;;;;13.23;83.26;100551.91;5018928;28;20361;-72
2023/06/26 02:50:07;;;;;;;0.00;0.00;;;;;;;13.28;83.38;100565.59;5014171;28;20060;-73
2023/06/26 02:52:32;;;;;;;0.00;0.00;;;;;;;13.24;84.12;100564.50;5009671;28;20121;-71
2023/06/26 02:54:58;;;;;;;0.00;0.00;;;;;;;13.23;83.98;100562.88;5046521;28;20121;-71
2023/06/26 02:57:23;;;;;;;0.00;0.00;;;;;;;13.21;83.97;100554.09;5010223;28;20107;-71
2023/06/26 02:59:48;;;;;;;0.00;0.00;;;;;;;13.30;84.42;100570.81;5055140;28;20036;-73
2023/06/26 03:02:14;;;;;;;0.00;0.00;;;;;;;13.34;84.32;100583.72;5014483;28;20026;-73
2023/06/26 03:04:39;;;;;;;0.00;0.00;;;;;;;13.35;84.82;100585.38;5014598;28;20061;-72
2023/06/26 03:07:05;;;;;;;0.00;0.00;;;;;;;13.33;84.57;100581.22;5024881;28;20033;-73
2023/06/26 03:09:30;;;;;;;0.00;0.00;;;;;;;13.37;84.69;100583.16;5018660;28;20033;-74
2023/06/26 03:11:56;;;;;;;0.00;0.00;;;;;;;13.38;84.76;100584.00;5026997;28;20035;-73
2023/06/26 03:14:21;;;;;;;0.00;0.00;;;;;;;13.32;85.04;100574.91;5007888;28;20363;-72
2023/06/26 03:16:47;;;;;;;0.00;0.00;;;;;;;13.30;84.58;100582.59;5034082;28;20108;-73
2023/06/26 03:19:13;;;;;;;0.00;0.00;;;;;;;13.24;84.96;100578.22;5026134;28;20471;-74
2023/06/26 03:21:38;;;;;;;0.00;0.00;;;;;;;13.20;85.19;100578.00;5019737;28;20029;-73
2023/06/26 03:24:04;;;;;;;0.00;0.00;;;;;;;13.22;85.54;100591.44;5054470;28;20034;-72
2023/06/26 03:26:29;;;;;;;0.00;0.00;;;;;;;13.20;85.29;100586.22;5013972;28;22062;-73
2023/06/26 03:28:55;;;;;;;0.00;0.00;;;;;;;13.24;85.10;100583.72;5054417;28;20091;-73
2023/06/26 03:31:20;;;;;;;0.00;0.00;;;;;;;13.23;84.80;100579.34;5012499;28;20472;-73
2023/06/26 03:33:46;;;;;;;0.00;0.00;;;;;;;13.16;85.24;100576.09;5000392;28;20030;-72
2023/06/26 03:36:11;;;;;;;0.00;0.00;;;;;;;13.08;85.18;100586.53;5047956;28;20025;-73
2023/06/26 03:38:37;;;;;;;0.00;0.00;;;;;;;13.14;84.99;100583.75;5039374;28;20068;-72
2023/06/26 03:41:03;;;;;;;0.00;0.00;;;;;;;13.13;85.35;100598.59;5036445;28;20049;-72
2023/06/26 03:43:28;;;;;;;0.00;0.00;;;;;;;13.12;85.17;100594.22;5046133;28;20082;-72
2023/06/26 03:45:54;;;;;;;0.00;0.00;;;;;;;13.08;85.04;100611.25;5029992;28;20103;-72
2023/06/26 03:48:19;;;;;;;0.00;0.00;;;;;;;13.06;85.88;100601.63;5045916;28;20041;-70
2023/06/26 03:50:45;;;;;;;0.00;0.00;;;;;;;13.01;85.58;100613.47;5023817;28;20029;-71
2023/06/26 03:53:11;;;;;;;0.00;0.00;;;;;;;12.98;85.68;100607.69;5034092;28;20040;-70
2023/06/26 03:55:38;;;;;;;0.00;0.00;;;;;;;12.98;85.76;100607.69;5011277;28;20546;-71
2023/06/26 03:58:03;;;;;;;0.00;0.00;;;;;;;13.00;85.61;100606.31;5029942;28;20028;-70
2023/06/26 04:00:29;;;;;;;0.00;0.00;;;;;;;13.02;85.86;100615.09;4991874;28;20540;-70
2023/06/26 04:02:55;;;;;;;0.00;0.00;;;;;;;13.04;85.66;100618.38;5036219;28;20043;-70
2023/06/26 04:05:20;;;;;;;0.00;0.00;;;;;;;13.01;85.97;100620.84;5054331;28;20518;-70
2023/06/26 04:07:54;;;;;;;0.00;0.00;;;;;;;12.93;86.05;100614.00;5031110;28;20113;-71
2023/06/26 04:10:21;;;;;;;;;;;;;;;12.95;86.00;100631.00;5031790;28;20032;-70
2023/06/26 04:12:47;;;;;;;0.00;0.00;;;;;;;12.91;85.98;100629.94;5024484;28;19927;-70
2023/06/26 04:15:13;;;;;;;0.00;0.00;;;;;;;12.94;86.26;100621.16;5042369;28;20025;-71
2023/06/26 04:17:38;;;;;;;0.00;0.00;;;;;;;12.94;85.93;100623.91;5043911;28;20048;-71
2023/06/26 04:20:06;;;;;;;0.00;0.00;;;;;;;12.96;85.77;100623.63;5036981;28;20074;-72
2023/06/26 04:22:32;;;;;;;0.00;0.00;;;;;;;13.03;85.90;100637.88;5013146;28;20022;-71
2023/06/26 04:24:57;;;;;;;0.00;0.00;;;;;;;13.00;85.57;100633.75;5047350;28;20427;-71
2023/06/26 04:27:23;;;;;;;0.00;0.00;;;;;;;13.05;85.54;100636.50;5044419;28;20114;-71
2023/06/26 04:29:48;;;;;;;0.00;0.00;;;;;;;13.07;85.09;100647.22;5021747;28;20037;-72
2023/06/26 04:32:14;;;;;;;0.00;0.00;;;;;;;13.08;85.42;100654.34;5015856;28;20082;-73
2023/06/26 04:34:42;;;;;;;0.00;0.00;;;;;;;13.10;85.62;100652.97;5052180;28;20086;-72
2023/06/26 04:37:18;;;;;;;0.00;0.00;;;;;;;12.99;85.13;100654.06;5016715;28;20068;-76
2023/06/26 04:39:43;;;;;;;0.00;0.00;;;;;;;12.78;86.46;100647.78;5024204;28;20037;-76
2023/06/26 04:42:11;;;;;;;0.00;0.00;;;;;;;12.65;87.13;100646.41;5022760;28;20025;-75
2023/06/26 04:44:37;;;;;;;0.00;0.00;;;;;;;12.53;87.65;100651.38;5040928;28;20162;-77
2023/06/26 04:47:03;;;;;;;0.00;0.00;;;;;;;12.47;88.21;100642.31;5023165;28;21098;-76
2023/06/26 04:49:29;;;;;;;0.00;0.00;;;;;;;12.41;88.14;100648.88;5019125;28;20025;-76
2023/06/26 04:51:55;;;;;;;0.00;0.00;;;;;;;12.55;88.81;100665.63;5043097;28;20036;-78
2023/06/26 04:54:21;;;;;;;0.00;0.00;;;;;;;12.48;89.96;100657.66;5058554;28;20021;-77
2023/06/26 04:56:47;;;;;;;0.00;0.00;;;;;;;12.45;89.46;100638.19;5013094;28;20441;-77
2023/06/26 04:59:13;;;;;;;0.00;0.00;;;;;;;12.47;89.50;100647.78;5011252;28;20023;-76
2023/06/26 05:01:39;;;;;;;0.00;0.00;;;;;;;12.53;89.97;100657.66;5038146;28;20025;-79
2023/06/26 05:04:05;;;;;;;0.00;0.00;;;;;;;12.53;89.92;100648.63;5044370;28;20036;-77
2023/06/26 05:06:31;;;;;;;0.00;0.00;;;;;;;12.67;89.90;100668.09;5033016;28;20096;-76
2023/06/26 05:08:56;;;;;;;0.00;0.00;;;;;;;12.59;89.88;100647.53;5041434;28;20765;-75
2023/06/26 05:11:22;;;;;;;0.00;0.00;;;;;;;12.60;89.62;100649.19;5046948;28;20100;-76
2023/06/26 05:13:48;;;;;;;0.00;0.00;;;;;;;12.78;89.57;100679.91;5013111;28;20130;-76
2023/06/26 05:16:17;;;;;;;0.00;0.00;;;;;;;12.62;89.31;100649.72;5025926;28;20025;-78
2023/06/26 05:18:42;;;;;;;0.03;0.03;;;;;;;12.73;89.33;100662.34;5025525;28;20030;-76
2023/06/26 05:21:11;;;;;;;0.00;0.00;;;;;;;12.81;88.83;100674.69;5008885;28;20033;-77
2023/06/26 05:23:48;;;;;;;0.00;0.00;;;;;;;12.78;89.17;100658.78;5023792;28;20098;-76
2023/06/26 05:26:41;;;;;;;0.00;0.00;;;;;;;12.85;88.68;100680.44;5034167;23;20060;-77
2023/06/26 05:29:07;;;;;;;0.00;0.00;;;;;;;12.80;89.06;100672.22;5006673;28;20152;-78
2023/06/26 05:31:40;;;;;;;0.00;0.00;;;;;;;12.82;88.79;100675.50;4990123;28;20042;-77
2023/06/26 05:34:07;;;;;;;0.00;0.00;;;;;;;12.95;88.54;100688.66;5012491;28;20108;-77
2023/06/26 05:37:04;;;;;;;;;;;;;;;;;;;;;
2023/06/26 05:39:30;;;;;;;0.00;0.00;;;;;;;12.93;88.05;100666.97;5028396;28;20036;-79
2023/06/26 05:41:58;;;;;;;0.00;0.00;;;;;;;13.22;87.44;100676.56;4997134;28;20117;-78
2023/06/26 05:44:26;;;;;;;0.00;0.00;;;;;;;13.48;86.77;100682.00;4986925;28;20527;-77
2023/06/26 05:47:05;;;;;;;0.00;0.00;;;;;;;13.57;85.61;100674.84;5028077;28;20036;-78
2023/06/26 05:53:02;;;;;;;0.00;0.00;;;;;;;13.60;85.43;100696.28;4984111;28;20171;-78
2023/06/26 05:56:17;;;;;;;;;;;;;;;;;;;;;
2023/06/26 06:02:48;;;;;;;0.00;0.00;;;;;;;13.65;85.07;100685.25;4850452;29;20513;-77
2023/06/26 06:05:47;;;;;;;;;;;;;;;;;;;;;
2023/06/26 06:12:22;;;;;;;;;;;;;;;;;;;;;
2023/06/26 06:14:47;;;;;;;0.00;0.00;;;;;;;14.14;83.12;100711.97;5007486;28;20024;-77
2023/06/26 06:17:15;;;;;;;0.00;0.00;;;;;;;14.27;82.68;100717.97;5014652;28;20489;-77
2023/06/26 06:19:45;;;;;;;0.00;0.00;;;;;;;14.30;82.12;100700.91;5008845;28;20104;-77
2023/06/26 06:22:20;;;;;;;;;;;;;;;;;;;;;
2023/06/26 06:24:48;;;;;;;0.00;0.00;;;;;;;14.63;81.92;100729.63;5009137;28;20028;-77
2023/06/26 06:27:14;;;;;;;0.00;0.00;;;;;;;14.71;81.32;100721.84;4995534;28;20054;-76
2023/06/26 06:29:40;;;;;;;0.00;0.00;;;;;;;14.89;80.53;100731.34;5018357;28;20377;-80
2023/06/26 06:32:10;;;;;;;0.00;0.00;;;;;;;14.93;80.16;100721.41;5051296;28;20044;-77
2023/06/26 06:34:38;;;;;;;0.00;0.00;;;;;;;15.13;79.04;100736.94;5011492;28;20022;-75
2023/06/26 06:37:06;;;;;;;0.00;0.00;;;;;;;15.27;78.01;100721.34;5041081;28;20065;-75
2023/06/26 06:39:32;;;;;;;0.00;0.00;;;;;;;15.37;77.55;100725.97;5016868;28;20017;-75
2023/06/26 06:42:06;;;;;;;0.00;0.00;;;;;;;15.35;77.49;100728.19;5044660;28;20028;-79
2023/06/26 06:44:35;;;;;;;0.00;0.00;;;;;;;15.21;78.20;100743.75;5002359;28;20120;-77
2023/06/26 06:47:02;;;;;;;0.00;0.00;;;;;;;15.10;78.44;100743.84;5009306;28;20026;-77
2023/06/26 06:49:30;;;;;;;0.00;0.00;;;;;;;15.08;78.84;100748.00;5000762;28;20164;-81
2023/06/26 06:51:59;;;;;;;0.00;0.00;;;;;;;15.12;78.57;100746.31;4992668;28;20590;-76
2023/06/26 06:54:27;;;;;;;0.00;0.00;;;;;;;15.39;77.90;100756.81;5054780;28;20030;-77
2023/06/26 06:56:55;;;;;;;0.00;0.00;;;;;;;15.57;78.07;100762.72;5012179;28;20025;-79
2023/06/26 06:59:32;;;;;;;0.00;0.00;;;;;;;15.75;76.30;100770.22;5014959;28;20084;-81
2023/06/26 07:01:57;;;;;;;0.00;0.00;;;;;;;15.87;75.56;100745.84;5041185;28;20049;-79
2023/06/26 07:04:22;;;;;;;0.00;0.00;;;;;;;16.06;74.50;100736.78;5024017;28;20054;-77
2023/06/26 07:07:20;;;;;;;0.00;0.00;;;;;;;16.45;73.37;100782.63;4999021;28;20049;-80
2023/06/26 07:09:45;;;;;;;0.00;0.00;;;;;;;16.42;72.88;100746.53;5016600;28;20034;-80
2023/06/26 07:12:18;;;;;;;0.00;0.00;;;;;;;16.38;72.11;100754.56;5025217;28;20025;-79
2023/06/26 07:14:44;;;;;;;0.00;0.00;;;;;;;16.45;71.99;100760.56;5013033;28;20030;-77
2023/06/26 07:17:09;;;;;;;0.00;0.00;;;;;;;16.65;71.59;100769.69;5016492;28;20053;-77
2023/06/26 07:19:35;;;;;;;0.00;0.00;;;;;;;16.93;71.52;100792.75;5039352;28;20108;-78
2023/06/26 07:22:05;;;;;;;0.00;0.00;;;;;;;16.95;70.59;100776.69;5023691;28;20402;-76
2023/06/26 07:24:33;;;;;;;0.00;0.00;;;;;;;17.00;69.63;100765.56;4992931;28;20041;-77
2023/06/26 07:27:00;;;;;;;0.00;0.00;;;;;;;17.13;70.24;100780.56;5017246;28;20022;-78
2023/06/26 07:29:38;;;;;;;;;;;;;;;;;;;;;
2023/06/26 07:32:04;;;;;;;0.00;0.00;;;;;;;17.16;67.93;100757.84;5008576;28;20029;-78
2023/06/26 07:34:32;;;;;;;0.00;0.00;;;;;;;17.54;67.93;100777.06;5054403;28;20115;-76
2023/06/26 07:36:57;;;;;;;0.00;0.00;;;;;;;18.07;67.11;100781.34;5021925;28;20021;-78
2023/06/26 07:39:23;;;;;;;0.00;0.00;;;;;;;18.44;64.34;100784.16;5052664;28;20127;-77
2023/06/26 07:41:48;;;;;;;0.00;0.00;;;;;;;18.83;63.33;100807.66;4990696;28;20052;-77
2023/06/26 07:44:16;;;;;;;0.00;0.00;;;;;;;18.82;63.16;100794.94;5051277;28;20041;-79
2023/06/26 07:46:46;;;;;;;0.00;0.00;;;;;;;18.89;61.89;100808.41;5012906;28;20370;-78
2023/06/26 07:49:12;;;;;;;0.00;0.00;;;;;;;18.85;60.43;100810.94;5018332;28;20460;-78
2023/06/26 07:51:37;;;;;;;0.00;0.00;;;;;;;18.81;60.27;100821.03;5041535;28;20064;-77
2023/06/26 07:54:06;;;;;;;0.00;0.00;;;;;;;18.62;61.27;100829.50;5039714;28;20602;-76
2023/06/26 07:56:33;;;;;;;0.00;0.00;;;;;;;18.21;61.53;100820.09;5028866;28;20025;-81
2023/06/26 07:59:00;;;;;;;0.00;0.00;;;;;;;17.90;62.51;100809.63;5017508;28;20386;-74
2023/06/26 08:01:25;;;;;;;0.00;0.00;;;;;;;18.00;62.21;100813.31;5025711;28;20041;-74
2023/06/26 08:03:51;;;;;;;0.00;0.00;;;;;;;17.98;62.97;100804.50;5018096;28;20025;-73
2023/06/26 08:06:16;;;;;;;0.00;0.00;;;;;;;18.01;61.79;100785.34;5021785;28;20109;-72
2023/06/26 08:08:42;;;;;;;0.00;0.00;;;;;;;18.38;61.59;100824.19;5013697;28;20033;-70
2023/06/26 08:11:27;;;;;;;0.00;0.00;;;;;;;18.67;60.92;100796.97;5015238;28;20034;-70
2023/06/26 08:13:55;;;;;;;0.00;0.00;;;;;;;18.74;59.44;100776.31;5035822;28;20068;-71
2023/06/26 08:16:22;;;;;;;0.00;0.00;;;;;;;19.12;58.51;100795.38;5007117;28;20029;-71
2023/06/26 08:18:50;;;;;;;0.00;0.00;;;;;;;19.43;58.36;100800.16;5012146;28;20029;-71
2023/06/26 08:21:18;;;;;;;0.00;0.00;;;;;;;19.29;57.44;100803.81;5011305;28;20033;-70
2023/06/26 08:23:49;;;;;;;0.00;0.00;;;;;;;19.21;57.96;100823.97;4997327;28;20029;-70
2023/06/26 08:26:14;;;;;;;0.00;0.00;;;;;;;19.00;58.22;100816.16;5004114;28;20112;-71
2023/06/26 08:28:40;;;;;;;0.00;0.00;;;;;;;19.12;57.75;100837.78;5017575;28;20069;-72
2023/06/26 08:31:05;;;;;;;0.00;0.00;;;;;;;19.30;56.71;100822.09;5008770;28;20536;-71
2023/06/26 08:33:31;;;;;;;0.00;0.00;;;;;;;19.33;56.77;100799.28;5017290;28;20034;-72
2023/06/26 08:35:56;;;;;;;0.00;0.00;;;;;;;19.58;56.32;100804.47;4984848;28;20879;-70
2023/06/26 08:38:30;;;;;;;0.00;0.00;;;;;;;19.94;55.89;100818.25;5001799;28;20087;-72
2023/06/26 08:40:55;;;;;;;0.00;0.00;;;;;;;19.93;54.66;100802.75;5013871;28;20087;-71
2023/06/26 08:43:21;;;;;;;0.00;0.00;;;;;;;20.04;53.71;100812.41;5008578;28;20056;-72
2023/06/26 08:45:51;;;;;;;0.00;0.00;;;;;;;20.04;53.01;100781.88;5018482;28;20026;-71
2023/06/26 08:48:18;;;;;;;0.00;0.00;;;;;;;20.39;53.23;100828.34;5045896;28;20058;-71
2023/06/26 08:50:48;;;;;;;0.00;0.00;;;;;;;20.34;52.48;100798.78;5009209;28;20033;-71
2023/06/26 08:53:28;;;;;;;0.00;0.00;;;;;;;20.23;52.45;100837.13;5022360;28;20029;-72
2023/06/26 08:55:57;;;;;;;0.00;0.00;;;;;;;19.92;51.69;100806.66;5005982;28;20033;-71
2023/06/26 08:58:22;;;;;;;0.00;0.00;;;;;;;19.99;48.96;100820.88;5006102;28;20056;-72
2023/06/26 09:00:49;;;;;;;0.00;0.00;;;;;;;20.08;49.61;100831.19;5013990;28;20456;-72
2023/06/26 09:03:15;;;;;;;0.00;0.00;;;;;;;20.27;49.19;100819.81;4999553;28;20114;-72
2023/06/26 09:05:41;;;;;;;0.00;0.00;;;;;;;20.67;46.55;100840.03;5012233;28;20064;-73
2023/06/26 09:08:15;;;;;;;0.00;0.00;;;;;;;20.74;46.54;100829.25;5003926;28;20061;-72
2023/06/26 09:10:41;;;;;;;0.00;0.00;;;;;;;21.14;46.66;100841.38;5006237;28;20329;-71
2023/06/26 09:13:07;;;;;;;0.00;0.00;;;;;;;21.89;46.32;100821.63;5023296;28;20558;-75
2023/06/26 09:15:42;;;;;;;0.00;0.00;;;;;;;22.41;44.63;100838.09;5020167;28;20426;-69
2023/06/26 09:18:10;;;;;;;0.00;0.00;;;;;;;22.27;45.29;100815.25;5007504;28;20411;-71
2023/06/26 09:20:36;;;;;;;0.00;0.00;;;;;;;22.07;44.52;100834.31;5017110;28;20087;-70
2023/06/26 09:23:05;;;;;;;0.00;0.00;;;;;;;21.82;44.94;100836.06;5006822;28;20064;-72
2023/06/26 09:25:31;;;;;;;0.00;0.00;;;;;;;21.68;44.17;100819.56;5004095;28;20033;-72
2023/06/26 09:27:57;;;;;;;0.00;0.00;;;;;;;21.83;43.86;100834.91;4995195;28;20049;-74
2023/06/26 09:30:23;;;;;;;0.00;0.00;;;;;;;21.75;44.55;100844.09;5001318;28;20034;-72
2023/06/26 09:32:54;;;;;;;0.00;0.00;;;;;;;22.04;44.14;100846.13;5010922;28;20045;-73
2023/06/26 09:35:27;;;;;;;0.00;0.00;;;;;;;22.54;43.86;100815.91;5013035;28;20018;-72
2023/06/26 09:37:52;;;;;;;0.00;0.00;;;;;;;23.29;42.45;100838.31;5008458;28;20430;-72
2023/06/26 09:40:18;;;;;;;0.00;0.00;;;;;;;23.41;41.96;100845.91;4992104;28;20124;-73
2023/06/26 09:42:44;;;;;;;0.00;0.00;;;;;;;23.66;40.51;100857.16;5025025;28;20037;-73
2023/06/26 09:45:18;;;;;;;0.00;0.00;;;;;;;24.31;39.46;100862.16;5026956;28;20169;-74
2023/06/26 09:47:44;;;;;;;0.00;0.00;;;;;;;24.70;38.56;100863.44;5011605;28;20021;-73
2023/06/26 09:50:22;;;;;;;0.00;0.00;;;;;;;24.46;37.26;100861.47;5022270;28;20052;-74
2023/06/26 09:52:51;;;;;;;0.00;0.00;;;;;;;24.41;38.19;100853.31;5008894;28;20033;-76
2023/06/26 09:55:19;;;;;;;0.00;0.00;;;;;;;24.67;37.57;100852.16;5013438;28;20072;-74
2023/06/26 09:57:47;;;;;;;0.00;0.00;;;;;;;25.09;37.39;100855.44;4998847;28;20033;-73
2023/06/26 10:00:13;;;;;;;0.00;0.00;;;;;;;25.49;36.69;100861.38;5011783;28;20029;-74
2023/06/26 10:02:39;;;;;;;0.00;0.00;;;;;;;25.80;36.98;100855.00;5002645;28;20135;-72
2023/06/26 10:05:10;;;;;;;0.00;0.00;;;;;;;25.91;35.42;100872.91;4984636;28;20040;-74
2023/06/26 10:07:39;;;;;;;0.00;0.00;;;;;;;25.78;34.67;100862.97;5008030;28;20103;-71
2023/06/26 10:10:15;;;;;;;0.00;0.00;;;;;;;25.94;35.38;100872.19;5016382;28;20114;-71
2023/06/26 10:12:48;;;;;;;0.00;0.00;;;;;;;25.96;34.73;100847.44;5026001;28;20670;-73
2023/06/26 10:15:16;;;;;;;0.00;0.00;;;;;;;26.14;34.47;100875.13;5033826;28;20017;-73
2023/06/26 10:17:43;;;;;;;0.00;0.00;;;;;;;26.06;34.73;100862.09;5010905;28;20501;-72
2023/06/26 10:20:14;;;;;;;0.00;0.00;;;;;;;26.11;34.01;100861.84;5019317;28;20029;-73
2023/06/26 10:22:49;;;;;;;0.00;0.00;;;;;;;26.30;33.66;100858.31;5023867;28;20040;-72
2023/06/26 10:25:21;;;;;;;0.00;0.00;;;;;;;26.47;32.84;100882.34;5022700;28;20042;-73
2023/06/26 10:27:58;;;;;;;0.00;0.00;;;;;;;26.72;32.95;100898.97;5006645;28;20049;-73
2023/06/26 10:30:36;;;;;;;0.00;0.00;;;;;;;26.93;32.44;100905.06;5003402;28;20514;-72
2023/06/26 10:33:03;;;;;;;0.00;0.00;;;;;;;27.03;31.83;100900.06;4999505;28;20029;-73
2023/06/26 10:35:31;;;;;;;0.00;0.00;;;;;;;27.09;31.74;100901.41;5009752;28;20132;-73
2023/06/26 10:38:06;;;;;;;0.00;0.00;;;;;;;27.06;32.20;100893.72;5016010;28;20762;-70
2023/06/26 10:40:46;;;;;;;0.00;0.00;;;;;;;26.76;32.00;100905.47;4990512;28;20038;-73
2023/06/26 10:43:13;;;;;;;0.00;0.00;;;;;;;26.42;33.18;100908.66;4997438;28;20105;-73
2023/06/26 10:45:46;;;;;;;0.00;0.00;;;;;;;26.13;33.01;100913.53;5032925;28;20150;-75
2023/06/26 10:48:15;;;;;;;0.00;0.00;;;;;;;25.54;33.60;100887.13;5007369;28;20105;-74
2023/06/26 10:50:49;;;;;;;0.00;0.00;;;;;;;25.56;33.83;100898.78;4988812;28;20112;-76
2023/06/26 10:53:34;;;;;;;0.00;0.00;;;;;;;25.66;33.46;100916.25;5007473;28;20105;-75
2023/06/26 10:56:04;;;;;;;0.00;0.00;;;;;;;25.64;32.92;100898.97;5033719;28;20057;-74
2023/06/26 10:58:43;;;;;;;0.00;0.00;;;;;;;25.72;32.80;100926.81;5009094;28;20064;-72
2023/06/26 11:01:14;;;;;;;0.00;0.00;;;;;;;25.23;33.66;100919.41;5014613;28;20033;-73
2023/06/26 11:04:02;;;;;;;0.00;0.00;;;;;;;25.22;33.72;100914.97;5000333;28;20116;-71
2023/06/26 11:06:28;;;;;;;0.00;0.00;;;;;;;26.58;32.15;100921.88;5005784;28;20129;-72
2023/06/26 11:09:00;;;;;;;0.00;0.00;;;;;;;27.98;29.66;100936.16;5006545;28;20120;-73
2023/06/26 11:12:04;;;;;;;0.00;0.00;;;;;;;29.25;28.13;100939.03;5009825;28;20041;-72
2023/06/26 11:14:31;;;;;;;0.00;0.00;;;;;;;29.99;26.00;100934.66;5024435;28;20037;-72
2023/06/26 11:16:57;;;;;;;0.00;0.00;;;;;;;29.14;26.37;100932.41;4989398;28;20061;-72
2023/06/26 11:19:26;;;;;;;0.00;0.00;;;;;;;30.06;25.72;100943.19;5002038;28;20548;-73
2023/06/26 11:21:52;;;;;;;0.00;0.00;;;;;;;29.58;26.62;100945.84;5049547;28;20072;-73
2023/06/26 11:24:18;;;;;;;0.00;0.00;;;;;;;28.95;26.93;100951.03;5001506;28;20045;-74
2023/06/26 11:26:45;;;;;;;0.00;0.00;;;;;;;29.22;26.18;100942.59;5003057;28;20123;-73
2023/06/26 11:29:11;;;;;;;0.00;0.00;;;;;;;29.53;24.97;100952.66;5007625;28;20132;-73
2023/06/26 11:31:38;;;;;;;0.00;0.00;;;;;;;30.06;25.70;100948.81;5028456;28;20045;-73
2023/06/26 11:34:11;;;;;;;0.00;0.00;;;;;;;30.37;25.84;100952.34;5016299;28;20029;-73
2023/06/26 11:36:46;;;;;;;0.00;0.00;;;;;;;31.50;25.15;100949.88;5012444;28;20064;-72
2023/06/26 11:39:11;;;;;;;0.00;0.00;;;;;;;31.21;24.34;100948.16;5007624;28;20052;-73
2023/06/26 11:41:39;;;;;;;0.00;0.00;;;;;;;30.21;25.96;100943.34;5018689;28;20446;-73
2023/06/26 11:44:07;;;;;;;0.00;0.00;;;;;;;31.65;25.54;100947.94;5002703;28;20054;-74
2023/06/26 11:46:35;;;;;;;0.00;0.00;;;;;;;32.97;23.22;100947.66;5024252;28;20044;-72
2023/06/26 11:49:03;;;;;;;0.00;0.00;;;;;;;32.91;22.12;100949.31;5010214;28;20069;-72
2023/06/26 11:51:28;;;;;;;0.00;0.00;;;;;;;32.93;22.69;100946.84;5021214;28;20100;-74